Latest Coastal Weather Observations for Gabo Island

IDV60701

Issued at 9:55 pm EST Friday 1 August 2014 (issued every 10 minutes, with the page automatically refreshed every 10 minutes)

About coastal observations | Map of coastal stations | Coastal observations for VIC | Marine services | Other Formats
Station Details ID: 084016 Name: GABO ISLAND LIGHTHOUSE Lat: -37.57 Lon: 149.92 Height: 15.2 m
Data from the previous 72 hours. | See also: Recent months at Gabo Island
Date/Time
EST
Temp

°C
Wind Pressure Rain
since 9am
mm
Weather Cloud Vis
km
Sea
Height
m
Swell
Dir
 
Speed
knots
Gust
knots
hPa Trend Height
m
Period
s
Dir
01/09:30pm 8.8 W 29 42 1010.9 - 0.8 - - - - - - -
01/09:05pm 9.0 W 27 37 1010.6 - 0.8 - - - - - - -
01/09:00pm 8.9 - 28 37 1010.5 - 0.8 Lightning Mostly clear 30 2 1.0 9 S
01/08:37pm 9.1 W 28 38 1010.0 - 0.8 - - - - - - -
01/08:30pm 9.1 WSW 29 38 1010.1 - 0.8 - - - - - - -
01/08:00pm 9.4 WSW 30 40 1009.5 - 0.8 - - - - - - -
01/07:57pm 9.6 WSW 29 40 1009.6 - 0.8 - - - - - - -
01/07:30pm 9.6 W 24 32 1009.5 - 0.8 - - - - - - -
01/07:00pm 10.0 W 26 33 1008.9 - 0.8 - - - - - - -
01/06:30pm 10.3 WSW 29 37 1008.5 - 0.8 - - - - - - -
01/06:00pm 11.3 WSW 27 34 1006.7 - 0.8 - - - - - - -
01/05:41pm 12.3 WSW 20 30 1006.3 - 0.8 - - - - - - -
01/05:30pm 12.4 W 19 23 1005.9 - 0.8 - - - - - - -
01/05:00pm 12.5 W 18 22 1005.3 - 0.8 - - - - - - -
01/04:30pm 12.9 W 21 27 1004.6 - 0.8 - - - - - - -
01/04:00pm 13.0 W 22 27 1004.1 - 0.8 - - - - - - -
01/03:49pm 12.6 W 15 23 1004.1 - 0.8 - - - - - - -
01/03:30pm 12.8 E 4 6 1004.0 - 0.8 - - - - - - -
01/03:00pm 12.1 SE 6 8 1003.4 - 0.8 Hail showers Mostly cloudy 50 1 1.0 9 S
01/02:30pm 13.2 SSE 10 13 1003.0 - 0.0 - - - - - - -
01/02:00pm 14.1 S 9 11 1002.7 - 0.0 - - - - - - -
01/01:30pm 15.1 SSW 10 15 1002.4 - 0.0 - - - - - - -
01/01:00pm 14.8 SW 5 10 1002.3 - 0.0 - - - - - - -
01/12:30pm 14.5 W 7 9 1002.3 - 0.0 - - - - - - -
01/12:00pm 14.3 WNW 9 11 1002.4 - 0.0 - - - - - - -
01/11:30am 13.9 NW 10 11 1002.7 - 0.0 - - - - - - -
01/11:00am 13.4 N 5 9 1003.0 - 0.0 - - - - - - -
01/10:30am 12.7 NNW 7 10 1002.9 - 0.0 - - - - - - -
01/10:00am 12.2 NNW 7 13 1003.0 - 0.0 - - - - - - -
01/09:30am 11.6 NNW 8 12 1003.3 - 0.0 - - - - - - -
01/09:00am 10.7 NNW 7 11 1003.3 - 0.0 Fine Mostly clear 50 1 1.2 9 S
01/08:30am 9.9 N 6 7 1003.2 - 0.0 - - - - - - -
01/08:00am 9.1 N 5 6 1002.9 - 0.0 - - - - - - -
01/07:30am 7.1 NNW 5 6 1002.9 - 0.0 - - - - - - -
01/07:00am 6.9 WNW 5 6 1002.9 - 0.0 - - - - - - -
01/06:30am 7.9 W 8 9 1002.7 - 0.0 - - - - - - -
01/06:00am 7.2 W 9 10 1002.2 - 0.0 - - - - - - -
01/05:30am 7.4 W 8 10 1002.1 - 0.0 - - - - - - -
01/05:00am 7.2 W 8 11 1001.7 - 0.0 - - - - - - -
01/04:30am 7.0 NW 7 11 1001.1 - 0.0 - - - - - - -
01/04:00am 7.4 NW 7 9 1001.5 - 0.0 - - - - - - -
01/03:30am 7.7 W 12 16 1001.9 - 0.0 - - - - - - -
01/03:00am 7.2 WNW 13 18 1002.2 - 0.0 Fine Cloudy 20 2 - - -
01/02:55am 7.0 WNW 14 19 1002.0 - 0.0 - - - - - - -
01/02:33am 7.6 W 21 31 1002.3 - 0.0 - - - - - - -
01/02:30am 7.7 W 23 32 1002.3 - 0.0 - - - - - - -
01/02:16am 8.1 W 24 35 1002.3 - 0.0 - - - - - - -
01/02:00am 8.8 WSW 32 38 1002.1 - 0.0 - - - - - - -
01/01:56am 8.5 WSW 34 37 1002.1 - 0.0 - - - - - - -
01/01:34am 8.9 WSW 23 33 1002.0 - 0.0 - - - - - - -
01/01:30am 9.0 WSW 23 29 1001.9 - 0.0 - - - - - - -
01/01:00am 9.4 WSW 25 30 1001.9 - 0.0 - - - - - - -
01/12:30am 9.5 WSW 24 31 1001.8 - 0.0 - - - - - - -
01/12:00am 10.1 WSW 29 35 1001.4 - 0.0 - - - - - - -
 
Date/Time
EST
Temp

°C
Wind Pressure Rain
since 9am
mm
Weather Cloud Vis
km
Sea
Height
m
Swell
Dir
 
Speed
knots
Gust
knots
hPa Trend Height
m
Period
s
Dir
31/11:34pm 10.9 WSW 27 38 1001.0 - 0.0 - - - - - - -
31/11:30pm 11.0 WSW 26 33 1001.0 - 0.0 - - - - - - -
31/11:00pm 11.3 WSW 29 35 1000.7 - 0.0 - - - - - - -
31/10:30pm 11.8 SW 30 38 1000.2 - 0.0 - - - - - - -
31/10:00pm 12.2 SW 26 30 1000.3 - 0.0 - - - - - - -
31/09:30pm 12.5 SW 23 28 1000.1 - 0.0 - - - - - - -
31/09:00pm 13.0 SW 27 32 999.5 - 0.0 Fine Mostly clear 30 1 1.0 10 S
31/08:30pm 13.7 SW 31 37 999.0 - 0.0 - - - - - - -
31/08:20pm 14.2 SSW 34 38 998.5 - 0.0 - - - - - - -
31/08:13pm 15.8 SW 21 31 998.7 - 0.0 - - - - - - -
31/08:00pm 17.1 N 7 9 997.8 - 0.0 - - - - - - -
31/07:30pm 18.6 NW 10 16 997.8 - 0.0 - - - - - - -
31/07:00pm 19.1 NW 10 13 997.5 - 0.0 - - - - - - -
31/06:30pm 20.0 WNW 12 17 996.9 - 0.0 - - - - - - -
31/06:00pm 21.0 NW 13 20 996.1 - 0.0 - - - - - - -
31/05:30pm 20.5 NNW 13 20 995.8 - 0.0 - - - - - - -
31/05:00pm 20.0 NNW 10 15 995.6 - 0.0 - - - - - - -
31/04:30pm 21.4 N 15 21 995.3 - 0.0 - - - - - - -
31/04:00pm 22.1 N 13 17 995.2 - 0.0 - - - - - - -
31/03:30pm 22.5 NNW 12 19 995.7 - 0.0 - - - - - - -
31/03:00pm 23.0 NNW 13 21 995.9 - 0.0 Fine Clear 30 1 0.5 10 S
31/02:30pm 23.0 NNW 16 23 996.3 - 0.0 - - - - - - -
31/02:02pm 23.1 NNW 15 25 996.3 - 0.0 - - - - - - -
31/02:00pm 23.1 NNW 14 25 996.3 - 0.0 - - - - - - -
31/01:36pm 22.8 NW 15 26 996.8 - 0.0 - - - - - - -
31/01:30pm 20.9 NNE 13 22 997.0 - 0.0 - - - - - - -
31/01:24pm 19.0 NNE 17 27 997.1 - 0.0 - - - - - - -
31/01:00pm 18.5 NNE 22 27 997.4 - 0.0 - - - - - - -
31/12:30pm 18.9 NNE 21 25 998.3 - 0.0 - - - - - - -
31/12:00pm 18.9 NNE 20 26 999.5 - 0.0 - - - - - - -
31/11:30am 18.7 NNE 19 23 1000.4 - 0.0 - - - - - - -
31/11:00am 18.4 NNE 19 23 1001.4 - 0.0 - - - - - - -
31/10:30am 18.0 NNE 16 20 1002.3 - 0.0 - - - - - - -
31/10:00am 17.8 NNE 16 19 1002.9 - 0.0 - - - - - - -
31/09:30am 17.5 N 15 18 1003.4 - 0.0 - - - - - - -
31/09:00am 15.9 N 14 18 1004.1 - 0.0 Fine Mostly clear 40 1 1.0 10 S
31/08:30am 15.3 N 13 17 1004.5 - 0.0 - - - - - - -
31/08:00am 15.2 N 13 18 1004.7 - 0.0 - - - - - - -
31/07:30am 13.3 NNE 12 15 1004.9 - 0.0 - - - - - - -
31/07:00am 12.9 N 12 16 1005.2 - 0.0 - - - - - - -
31/06:30am 12.9 N 11 14 1005.6 - 0.0 - - - - - - -
31/06:00am 12.9 N 9 11 1005.7 - 0.0 - - - - - - -
31/05:30am 14.6 N 10 12 1005.8 - 0.0 - - - - - - -
31/05:00am 14.9 N 10 13 1006.1 - 0.0 - - - - - - -
31/04:30am 14.6 N 10 13 1006.5 - 0.0 - - - - - - -
31/04:00am 15.5 N 9 11 1006.8 - 0.0 - - - - - - -
31/03:30am 15.8 N 8 11 1007.1 - 0.0 - - - - - - -
31/03:00am 13.0 N 10 11 1007.6 - 0.0 Fine Clear 30 1 1.0 10 S
31/02:30am 14.1 N 9 11 1008.0 - 0.0 - - - - - - -
31/02:00am 16.1 N 11 13 1008.4 - 0.0 - - - - - - -
31/01:30am 15.1 N 10 13 1008.5 - 0.0 - - - - - - -
31/01:00am 14.7 N 10 13 1008.7 - 0.0 - - - - - - -
31/12:30am 14.4 N 10 13 1008.9 - 0.0 - - - - - - -
31/12:00am 14.4 N 11 13 1009.3 - 0.0 - - - - - - -
 
Date/Time
EST
Temp

°C
Wind Pressure Rain
since 9am
mm
Weather Cloud Vis
km
Sea
Height
m
Swell
Dir
 
Speed
knots
Gust
knots
hPa Trend Height
m
Period
s
Dir
30/11:30pm 13.6 N 10 14 1009.5 - 0.0 - - - - - - -
30/11:00pm 13.5 N 10 11 1009.6 - 0.0 - - - - - - -
30/10:30pm 13.7 N 10 11 1009.6 - 0.0 - - - - - - -
30/10:00pm 14.4 N 10 12 1009.7 - 0.0 - - - - - - -
30/09:30pm 14.4 N 9 11 1009.7 - 0.0 - - - - - - -
30/09:00pm 15.1 N 8 9 1010.0 - 0.0 Fine Clear 30 1 1.5 10 S
30/08:30pm 14.9 N 8 9 1010.0 - 0.0 - - - - - - -
30/08:00pm 15.9 N 8 11 1010.2 - 0.0 - - - - - - -
30/07:30pm 15.9 N 8 9 1010.2 - 0.0 - - - - - - -
30/07:00pm 15.2 N 8 10 1009.9 - 0.0 - - - - - - -
30/06:30pm 15.0 NW 7 9 1009.7 - 0.0 - - - - - - -
30/06:00pm 14.7 NW 7 9 1009.5 - 0.0 - - - - - - -
30/05:30pm 15.4 WNW 7 8 1009.4 - 0.0 - - - - - - -
30/05:00pm 15.8 NNW 6 6 1009.3 - 0.0 - - - - - - -
30/04:30pm 16.0 NNE 5 6 1009.0 - 0.0 - - - - - - -
30/04:00pm 16.7 NE 5 6 1009.0 - 0.0 - - - - - - -
30/03:30pm 16.6 ENE 8 9 1009.2 - 0.0 - - - - - - -
30/03:00pm 16.4 E 5 7 1009.5 - 0.0 Fine Partly cloudy 30 1 1.5 10 S
30/02:30pm 16.5 ESE 6 8 1009.6 - 0.0 - - - - - - -
30/02:00pm 17.0 SE 8 11 1009.7 - 0.0 - - - - - - -
30/01:30pm 17.5 SE 7 11 1009.7 - 0.0 - - - - - - -
30/01:00pm 17.6 SSE 8 10 1009.9 - 0.0 - - - - - - -
30/12:30pm 18.1 ESE 5 8 1010.4 - 0.0 - - - - - - -
30/12:00pm 17.5 E 5 6 1010.5 - 0.0 - - - - - - -
30/11:30am 17.5 NE 5 6 1010.8 - 0.0 - - - - - - -
30/11:00am 17.1 NE 6 7 1011.2 - 0.0 - - - - - - -
30/10:30am 17.2 ENE 4 5 1011.6 - 0.0 - - - - - - -
30/10:00am 16.8 SSE 3 5 1011.8 - 0.0 - - - - - - -
30/09:30am 16.4 S 3 3 1011.8 - 0.0 - - - - - - -
30/09:00am 15.8 WSW 3 5 1012.1 - 0.0 Fine Partly cloudy 30 1 0.8 9 S
30/08:30am 14.7 W 3 6 1011.9 - 0.0 - - - - - - -
30/08:00am 15.1 WSW 6 10 1011.9 - 0.0 - - - - - - -
30/07:30am 15.2 SSW 9 11 1011.5 - 0.0 - - - - - - -
30/07:00am 15.1 SSE 4 5 1011.1 - 0.0 - - - - - - -
30/06:30am 15.6 NNE 2 3 1010.5 - 0.0 - - - - - - -
30/06:00am 15.8 NNW 6 7 1010.1 - 0.0 - - - - - - -
30/05:30am 16.1 NW 7 9 1009.9 - 0.0 - - - - - - -
30/05:00am 15.3 NW 2 6 1009.6 - 0.0 - - - - - - -
30/04:30am 14.3 N 6 7 1009.2 - 0.0 - - - - - - -
30/04:00am 14.1 NNE 7 8 1009.0 - 0.0 - - - - - - -
30/03:30am 15.2 N 6 8 1008.8 - 0.0 - - - - - - -
30/03:00am 15.1 N 7 10 1008.7 - 0.0 Fine Mostly clear 30 1 - - -
30/02:30am 15.3 N 7 10 1008.6 - 0.0 - - - - - - -
30/02:00am 15.7 NNW 9 12 1008.4 - 0.0 - - - - - - -
30/01:30am 15.9 NNW 9 14 1008.3 - 0.0 - - - - - - -
30/01:00am 15.9 NNW 10 15 1008.2 - 0.0 - - - - - - -
30/12:30am 15.9 NNW 10 14 1008.2 - 0.0 - - - - - - -
30/12:00am 16.2 NNW 9 13 1008.2 - 0.0 - - - - - - -
 
Date/Time
EST
Temp

°C
Wind Pressure Rain
since 9am
mm
Weather Cloud Vis
km
Sea
Height
m
Swell
Dir
 
Speed
knots
Gust
knots
hPa Trend Height
m
Period
s
Dir
29/11:30pm 15.8 NNW 8 11 1008.2 - 0.0 - - - - - - -
29/11:00pm 16.1 NNW 10 13 1008.2 - 0.0 - - - - - - -
29/10:30pm 16.1 NNW 9 12 1008.0 - 0.0 - - - - - - -
29/10:00pm 16.3 NNW 10 14 1008.1 - 0.0 - - - - - - -

Other Formats:

Comma delimited format used in spreadsheet applications
http://www.bom.gov.au/fwo/IDV60701/IDV60701.94933.axf

JavaScript Object Notation format (JSON) in row-major order
http://www.bom.gov.au/fwo/IDV60701/IDV60701.94933.json